Time;durP1;ratioP1;P1;durP2;ratioP2;P2;SDS_P1;SDS_P2;PMS_P1;PMS_P2;Temp;Humidity;BMP_temperature;BMP_pressure;BME280_temperature;BME280_humidity;BME280_pressure;Samples;Min_cycle;Max_cycle;Signal;HPM_P1;HPM_P2
2022/07/08 00:00:52;;;;;;;;;4.00;4.00;;;;;22.12;44.13;102508.19;2102159;28;45998;-59
2022/07/08 00:01:54;;;;;;;;;5.75;5.00;;;;;22.12;44.09;102500.97;2095653;28;47577;-58
2022/07/08 00:02:55;;;;;;;;;3.50;3.50;;;;;22.12;44.16;102494.66;2090647;28;47645;-60
2022/07/08 00:03:55;;;;;;;;;2.00;2.00;;;;;22.10;43.68;102494.69;2110893;27;45863;-59
2022/07/08 00:04:55;;;;;;;;;3.75;3.75;;;;;22.11;43.48;102491.09;2102160;28;47206;-59
2022/07/08 00:05:56;;;;;;;;;2.50;2.50;;;;;22.11;44.09;102484.81;2107086;27;47526;-61
2022/07/08 00:06:56;;;;;;;;;3.00;3.00;;;;;22.10;43.66;102488.41;2101310;28;47620;-60
2022/07/08 00:07:57;;;;;;;;;2.00;2.00;;;;;22.12;44.15;102491.97;2104558;28;47431;-58
2022/07/08 00:08:58;;;;;;;;;3.20;2.20;;;;;22.10;43.60;102492.00;2092809;28;46909;-59
2022/07/08 00:09:58;;;;;;;;;6.25;4.25;;;;;22.09;43.51;102494.78;2103907;28;47632;-59
2022/07/08 00:10:58;;;;;;;;;2.50;2.50;;;;;22.08;43.81;102496.59;2100650;27;46168;-56
2022/07/08 00:11:59;;;;;;;;;2.50;2.00;;;;;22.08;44.00;102493.91;2104378;28;48146;-60
2022/07/08 00:12:59;;;;;;;;;3.00;3.00;;;;;22.07;43.51;102496.66;2094470;28;47384;-60
2022/07/08 00:14:00;;;;;;;;;2.00;2.00;;;;;22.06;43.76;102494.91;2078445;28;48050;-60
2022/07/08 00:15:00;;;;;;;;;4.00;4.00;;;;;22.04;43.91;102505.75;2085483;28;47886;-58
2022/07/08 00:16:01;;;;;;;;;3.25;3.25;;;;;22.04;44.12;102492.25;2103780;28;47606;-59
2022/07/08 00:17:01;;;;;;;;;3.67;1.00;;;;;22.02;43.87;102497.72;2100779;27;46992;-61
2022/07/08 00:18:02;;;;;;;;;4.33;3.67;;;;;22.03;44.26;102498.59;2113337;27;47271;-62
2022/07/08 00:19:03;;;;;;;;;3.00;2.00;;;;;22.02;44.24;102494.13;2102827;27;45576;-61
2022/07/08 00:20:04;;;;;;;;;4.25;4.25;;;;;22.00;43.85;102504.13;2111965;27;47598;-59
2022/07/08 00:21:05;;;;;;;;;5.80;3.00;;;;;21.99;43.71;102503.25;2098739;27;47722;-59
2022/07/08 00:22:06;;;;;;;;;3.75;2.75;;;;;21.98;44.29;102506.03;2108085;27;47406;-61
2022/07/08 00:23:06;;;;;;;;;5.00;2.75;;;;;21.96;44.06;102503.34;2102151;27;47801;-60
2022/07/08 00:24:07;;;;;;;;;4.00;4.00;;;;;21.95;44.12;102503.41;2104929;27;46517;-59
2022/07/08 00:25:07;;;;;;;;;5.33;2.33;;;;;21.93;44.32;102503.50;2101967;27;46555;-61
2022/07/08 00:26:08;;;;;;;;;4.00;3.50;;;;;21.93;44.28;102502.59;2113238;27;46950;-58
2022/07/08 00:27:08;;;;;;;;;4.00;4.00;;;;;21.92;43.84;102493.63;2100047;27;46788;-60
2022/07/08 00:28:09;;;;;;;;;2.00;2.00;;;;;21.92;44.22;102493.63;2111141;27;47743;-60
2022/07/08 00:29:09;;;;;;;;;4.00;4.00;;;;;21.92;43.97;102499.03;2099737;27;46794;-60
2022/07/08 00:30:10;;;;;;;;;2.67;2.67;;;;;21.91;44.25;102494.56;2107986;27;47425;-62
2022/07/08 00:31:10;;;;;;;;;5.00;5.00;;;;;21.90;44.48;102495.50;2098256;27;47872;-61
2022/07/08 00:32:11;;;;;;;;;3.33;2.33;;;;;21.90;44.01;102484.69;2104620;28;47370;-59
2022/07/08 00:33:12;;;;;;;;;2.00;2.00;;;;;21.90;43.83;102492.81;2099985;27;47225;-61
2022/07/08 00:34:12;;;;;;;;;3.00;3.00;;;;;21.89;43.92;102493.75;2107015;27;47900;-59
2022/07/08 00:35:13;;;;;;;;;2.75;2.75;;;;;21.88;44.29;102494.69;2085653;28;47379;-61
2022/07/08 00:36:13;;;;;;;;;2.00;2.00;;;;;21.87;44.05;102495.66;2095344;28;47871;-61
2022/07/08 00:37:13;;;;;;;;;4.67;4.67;;;;;21.86;44.30;102491.19;2102021;27;47516;-60
2022/07/08 00:38:14;;;;;;;;;2.67;2.00;;;;;21.85;44.31;102496.63;2113427;27;47610;-60
2022/07/08 00:39:14;;;;;;;;;3.33;3.00;;;;;21.84;44.55;102497.56;2100608;27;47259;-59
2022/07/08 00:40:14;;;;;;;;;2.33;2.33;;;;;21.83;44.09;102494.00;2110411;27;46847;-60
2022/07/08 00:41:15;;;;;;;;;2.33;2.33;;;;;21.83;43.99;102485.88;2100617;27;47579;-61
2022/07/08 00:42:16;;;;;;;;;3.00;3.00;;;;;21.82;44.28;102481.41;2106820;27;47568;-61
2022/07/08 00:43:32;;;;;;;;;5.25;3.75;;;;;21.84;44.13;102487.63;2102385;28;48139;-60
2022/07/08 00:44:33;;;;;;;;;4.50;3.75;;;;;21.83;44.00;102480.47;2101733;28;47521;-60
2022/07/08 00:45:33;;;;;;;;;2.67;2.67;;;;;21.82;44.31;102481.41;2108625;27;47884;-60
2022/07/08 00:46:34;;;;;;;;;3.00;2.67;;;;;21.81;44.21;102484.19;2102779;27;47524;-62
2022/07/08 00:47:34;;;;;;;;;4.33;3.00;;;;;21.79;44.24;102475.28;2105920;27;47426;-61
2022/07/08 00:48:35;;;;;;;;;1.33;1.33;;;;;21.77;44.25;102486.16;2105218;27;48148;-61
2022/07/08 00:49:35;;;;;;;;;2.75;2.75;;;;;21.76;44.67;102480.81;2106120;27;47259;-61
2022/07/08 00:50:36;;;;;;;;;2.00;2.00;;;;;21.74;44.80;102487.16;2102121;28;47679;-60
2022/07/08 00:51:38;;;;;;;;;1.67;1.67;;;;;21.74;44.38;102486.28;2108226;27;47409;-61
2022/07/08 00:52:39;;;;;;;;;2.00;2.00;;;;;21.73;44.62;102488.09;2103724;27;46425;-59
2022/07/08 00:53:43;;;;;;;;;2.00;2.00;;;;;21.72;44.34;102497.16;2106826;27;47541;-60
2022/07/08 00:54:44;;;;;;;;;2.50;2.50;;;;;21.71;44.72;102499.88;2100535;28;48017;-60
2022/07/08 00:55:45;;;;;;;;;2.67;2.67;;;;;21.70;44.50;102495.44;2103736;27;46603;-62
2022/07/08 00:56:46;;;;;;;;;2.00;2.00;;;;;21.69;44.36;102499.94;2100391;28;47445;-59
2022/07/08 00:57:47;;;;;;;;;1.80;1.80;;;;;21.69;44.59;102499.94;2110978;27;47521;-60
2022/07/08 00:58:48;;;;;;;;;3.00;3.00;;;;;21.68;44.96;102503.59;2105342;27;46812;-58
2022/07/08 00:59:49;;;;;;;;;2.75;2.25;;;;;21.67;44.45;102501.84;2110504;27;47680;-59
2022/07/08 01:00:50;;;;;;;;;4.33;3.33;;;;;21.67;44.70;102503.66;2100295;27;46650;-60
2022/07/08 01:01:51;;;;;;;;;2.00;2.00;;;;;21.66;44.32;102507.31;2107388;27;47615;-59
2022/07/08 01:02:52;;;;;;;;;5.00;2.50;;;;;21.64;44.80;102509.19;2102040;28;48368;-59
2022/07/08 01:03:54;;;;;;;;;3.33;3.33;;;;;21.64;44.95;102511.91;2105320;27;45492;-59
2022/07/08 01:04:54;;;;;;;;;3.50;3.50;;;;;21.61;44.40;102504.78;2100466;28;47710;-59
2022/07/08 01:05:54;;;;;;;;;5.67;4.00;;;;;21.60;44.71;102510.25;2111684;27;46508;-59
2022/07/08 01:06:55;;;;;;;;;6.00;1.00;;;;;21.60;44.91;102512.97;2106320;27;46695;-60
2022/07/08 01:07:56;;;;;;;;;3.00;3.00;;;;;21.59;45.00;102514.75;2111625;27;47251;-59
2022/07/08 01:08:57;;;;;;;;;4.00;3.75;;;;;21.59;45.06;102524.69;2098997;27;47217;-60
2022/07/08 01:09:59;;;;;;;;;3.67;3.67;;;;;21.58;44.71;102517.53;2108968;27;47603;-60
2022/07/08 01:11:00;;;;;;;;;2.00;2.00;;;;;21.57;44.70;102521.16;2098024;28;47353;-60
2022/07/08 01:12:00;;;;;;;;;1.00;1.00;;;;;21.56;45.07;102525.69;2111410;27;47854;-60
2022/07/08 01:13:01;;;;;;;;;1.00;1.00;;;;;21.55;45.14;102521.22;2100823;28;47555;-60
2022/07/08 01:14:01;;;;;;;;;4.67;4.67;;;;;21.54;44.72;102514.06;2108587;27;46203;-59
2022/07/08 01:15:02;;;;;;;;;3.33;3.33;;;;;21.54;44.98;102522.19;2098301;27;47170;-60
2022/07/08 01:16:03;;;;;;;;;3.00;3.00;;;;;21.54;45.10;102521.28;2104245;28;47049;-60
2022/07/08 01:17:03;;;;;;;;;4.00;4.00;;;;;21.52;44.90;102524.06;2100434;27;46485;-59
2022/07/08 01:18:04;;;;;;;;;2.00;2.00;;;;;21.51;44.75;102521.44;2102727;27;47565;-59
2022/07/08 01:19:04;;;;;;;;;4.33;4.33;;;;;21.49;44.86;102523.31;2091267;28;48037;-59
2022/07/08 01:20:05;;;;;;;;;2.00;2.00;;;;;21.48;45.29;102524.25;2095136;28;46480;-61
2022/07/08 01:21:06;;;;;;;;;3.75;3.00;;;;;21.46;45.29;102535.09;2102158;27;47970;-60
2022/07/08 01:22:06;;;;;;;;;4.00;4.00;;;;;21.45;45.30;102530.63;2108166;27;47442;-59
2022/07/08 01:23:07;;;;;;;;;3.33;3.33;;;;;21.43;44.73;102533.38;2102862;28;47537;-60
2022/07/08 01:24:07;;;;;;;;;2.00;2.00;;;;;21.44;45.22;102526.16;2104904;28;45439;-59
2022/07/08 01:25:09;;;;;;;;;2.67;2.67;;;;;21.43;45.08;102529.81;2102361;27;47920;-60
2022/07/08 01:26:12;;;;;;;;;2.75;2.75;;;;;21.41;44.71;102524.47;2107955;27;47390;-61
2022/07/08 01:27:13;;;;;;;;;2.00;2.00;;;;;21.42;45.24;102528.06;2103071;27;47629;-60
2022/07/08 01:28:14;;;;;;;;;4.67;4.67;;;;;21.41;45.42;102529.88;2104307;28;47370;-59
2022/07/08 01:29:16;;;;;;;;;3.00;3.00;;;;;21.40;44.96;102533.50;2100258;27;48180;-60
2022/07/08 01:30:17;;;;;;;;;4.25;4.25;;;;;21.37;45.55;102532.75;2104066;27;48155;-60
2022/07/08 01:31:18;;;;;;;;;4.75;3.00;;;;;21.36;44.90;102542.69;2103949;27;47814;-59
2022/07/08 01:32:18;;;;;;;;;2.25;2.25;;;;;21.36;44.97;102549.91;2107837;27;46855;-61
2022/07/08 01:33:19;;;;;;;;;4.00;4.00;;;;;21.34;45.22;102544.56;2102326;27;47146;-61
2022/07/08 01:34:19;;;;;;;;;3.25;3.25;;;;;21.33;45.52;102550.00;2104615;27;46462;-60
2022/07/08 01:35:19;;;;;;;;;4.00;4.00;;;;;21.31;45.05;102544.66;2102611;27;48436;-60
2022/07/08 01:36:20;;;;;;;;;4.33;3.00;;;;;21.29;44.92;102541.13;2103421;28;47422;-61
2022/07/08 01:37:20;;;;;;;;;7.75;4.50;;;;;21.29;45.11;102541.13;2105055;27;45126;-60
2022/07/08 01:38:21;;;;;;;;;2.33;2.33;;;;;21.29;45.35;102545.66;2104371;27;47360;-60
2022/07/08 01:39:21;;;;;;;;;5.00;4.50;;;;;21.27;45.52;102545.72;2100447;27;47625;-60
2022/07/08 01:40:21;;;;;;;;;3.75;3.75;;;;;21.26;45.07;102543.97;2102863;27;47811;-60
2022/07/08 01:41:22;;;;;;;;;4.00;4.00;;;;;21.25;45.66;102541.28;2104544;27;47678;-58
2022/07/08 01:42:22;;;;;;;;;5.75;4.25;;;;;21.24;45.53;102545.81;2104405;27;47740;-60
2022/07/08 01:43:23;;;;;;;;;5.00;5.00;;;;;21.24;45.45;102548.50;2085743;28;47344;-60
2022/07/08 01:44:23;;;;;;;;;5.00;5.00;;;;;21.22;45.44;102544.09;2084940;28;47898;-60
2022/07/08 01:45:23;;;;;;;;;5.50;4.75;;;;;21.20;45.64;102543.25;2097501;28;46065;-60
2022/07/08 01:46:24;;;;;;;;;5.00;5.00;;;;;21.19;45.13;102549.59;2099086;27;45529;-59
2022/07/08 01:47:24;;;;;;;;;3.75;3.00;;;;;21.16;45.49;102545.19;2100386;27;48527;-59
2022/07/08 01:48:25;;;;;;;;;3.00;3.00;;;;;21.14;45.16;102544.38;2102827;28;46809;-59
2022/07/08 01:49:26;;;;;;;;;6.50;6.50;;;;;21.12;45.81;102546.25;2106545;27;47419;-60
2022/07/08 01:50:26;;;;;;;;;4.80;4.80;;;;;21.10;45.22;102549.03;2103629;27;47618;-60
2022/07/08 01:51:27;;;;;;;;;4.25;4.25;;;;;21.08;45.62;102540.06;2105677;27;47296;-60
2022/07/08 01:52:27;;;;;;;;;6.25;5.00;;;;;21.05;45.57;102542.88;2097055;28;47971;-59
2022/07/08 01:53:28;;;;;;;;;3.00;3.00;;;;;21.05;45.78;102553.69;2098680;28;47976;-59
2022/07/08 01:54:28;;;;;;;;;6.50;4.75;;;;;21.04;45.71;102549.22;2101877;27;47421;-59
2022/07/08 01:55:28;;;;;;;;;5.25;5.00;;;;;21.03;45.36;102550.16;2103727;27;47707;-60
2022/07/08 01:56:29;;;;;;;;;5.00;4.00;;;;;21.02;45.54;102555.63;2102456;28;47611;-60
2022/07/08 01:57:29;;;;;;;;;3.00;3.00;;;;;21.01;45.90;102552.03;2105897;27;47949;-59
2022/07/08 01:58:30;;;;;;;;;4.25;4.25;;;;;21.00;45.09;102558.38;2107984;27;46680;-58
2022/07/08 01:59:30;;;;;;;;;2.50;2.50;;;;;20.98;45.98;102552.16;2107674;27;47327;-59
2022/07/08 02:00:30;;;;;;;;;4.50;4.00;;;;;20.96;45.63;102551.34;2105990;27;47831;-60
2022/07/08 02:01:31;;;;;;;;;2.00;2.00;;;;;20.94;46.00;102547.78;2104792;27;45881;-59
2022/07/08 02:02:31;;;;;;;;;3.00;2.67;;;;;20.94;46.00;102546.91;2101746;28;47599;-58
2022/07/08 02:03:32;;;;;;;;;5.00;5.00;;;;;20.93;46.11;102546.03;2104156;27;47831;-59
2022/07/08 02:04:32;;;;;;;;;4.33;4.33;;;;;20.94;45.58;102550.50;2102849;28;47442;-59
2022/07/08 02:05:34;;;;;;;;;7.50;6.25;;;;;20.94;45.92;102549.59;2108420;27;47111;-61
2022/07/08 02:06:34;;;;;;;;;6.50;5.25;;;;;20.94;45.85;102542.38;2107359;27;47742;-59
2022/07/08 02:07:35;;;;;;;;;5.00;5.00;;;;;20.94;45.65;102546.91;2108930;27;47799;-60
2022/07/08 02:08:35;;;;;;;;;4.33;4.00;;;;;20.94;45.65;102545.09;2106264;27;47621;-60
2022/07/08 02:09:37;;;;;;;;;5.67;5.33;;;;;20.94;45.46;102546.91;2087206;28;47691;-61
2022/07/08 02:13:16;;;;;;;;;2.50;2.00;;;;;20.94;45.53;102541.50;2102684;28;47769;-60
2022/07/08 02:14:16;;;;;;;;;4.50;2.75;;;;;20.93;45.62;102543.34;2105677;28;47753;-60
2022/07/08 02:15:17;;;;;;;;;4.00;2.00;;;;;20.93;46.00;102545.16;2104394;27;47257;-60
2022/07/08 02:16:17;;;;;;;;;5.00;3.33;;;;;20.92;45.70;102540.69;2112890;27;47663;-60
2022/07/08 02:17:20;;;;;;;;;3.00;3.00;;;;;20.92;45.44;102540.69;2102618;27;47424;-60
2022/07/08 02:18:21;;;;;;;;;3.25;2.50;;;;;20.91;45.49;102545.22;2090125;28;47922;-59
2022/07/08 02:19:21;;;;;;;;;4.33;4.33;;;;;20.91;45.75;102547.03;2089895;28;47626;-60
2022/07/08 02:20:21;;;;;;;;;4.00;3.00;;;;;20.89;45.46;102544.38;2104217;27;47673;-60
2022/07/08 02:21:22;;;;;;;;;2.33;2.33;;;;;20.89;45.93;102547.09;2103556;27;47233;-59
2022/07/08 02:22:23;;;;;;;;;4.00;4.00;;;;;20.89;45.96;102546.22;2111501;27;47100;-61
2022/07/08 02:23:23;;;;;;;;;3.33;3.00;;;;;20.86;45.51;102541.81;2106999;27;48102;-60
2022/07/08 02:24:23;;;;;;;;;5.00;4.00;;;;;20.86;45.66;102552.59;2111079;27;47503;-60
2022/07/08 02:25:24;;;;;;;;;3.33;3.33;;;;;20.85;45.42;102540.06;2104656;27;46842;-60
2022/07/08 02:26:24;;;;;;;;;2.67;2.67;;;;;20.84;45.47;102541.88;2108003;27;46340;-60
2022/07/08 02:27:25;;;;;;;;;2.67;2.67;;;;;20.84;46.14;102547.25;2099178;28;47024;-60
2022/07/08 02:28:25;;;;;;;;;3.00;3.00;;;;;20.84;45.86;102543.69;2095725;28;47523;-60
2022/07/08 02:29:25;;;;;;;;;3.33;2.67;;;;;20.83;46.04;102548.19;2100372;27;47269;-60
2022/07/08 02:30:26;;;;;;;;;2.00;1.00;;;;;20.83;45.97;102544.59;2103872;28;47510;-60
2022/07/08 02:31:26;;;;;;;;;3.00;2.00;;;;;20.82;45.86;102546.41;2104776;28;47633;-60
2022/07/08 02:32:27;;;;;;;;;3.67;3.67;;;;;20.81;45.42;102547.34;2103519;28;47303;-60
2022/07/08 02:33:27;;;;;;;;;3.33;3.00;;;;;20.81;45.86;102543.75;2107793;27;47897;-59
2022/07/08 02:34:28;;;;;;;;;3.67;3.67;;;;;20.80;45.72;102547.41;2109675;27;47731;-59
2022/07/08 02:35:28;;;;;;;;;4.33;4.33;;;;;20.80;45.51;102542.00;2104862;27;47473;-60
2022/07/08 02:36:29;;;;;;;;;2.33;2.00;;;;;20.78;45.43;102538.50;2105642;27;47683;-59
2022/07/08 02:37:29;;;;;;;;;2.00;2.00;;;;;20.77;45.55;102534.03;2106960;27;47145;-59
2022/07/08 02:38:30;;;;;;;;;4.00;4.00;;;;;20.76;45.50;102534.97;2103236;28;47848;-59
2022/07/08 02:39:30;;;;;;;;;3.00;3.00;;;;;20.75;45.93;102533.22;2104748;28;47621;-61
2022/07/08 02:40:31;;;;;;;;;2.67;2.33;;;;;20.73;46.30;102524.28;2086166;28;48150;-61
2022/07/08 02:41:31;;;;;;;;;2.00;2.00;;;;;20.73;45.60;102529.69;2086666;28;47797;-59
2022/07/08 02:42:31;;;;;;;;;4.00;2.33;;;;;20.73;45.71;102529.69;2103837;27;47459;-61
2022/07/08 02:43:32;;;;;;;;;2.67;2.67;;;;;20.71;45.78;102527.03;2101224;28;48064;-59
2022/07/08 02:44:32;;;;;;;;;2.67;2.67;;;;;20.71;46.17;102526.13;2094813;28;47875;-59
2022/07/08 02:45:33;;;;;;;;;3.00;3.00;;;;;20.69;46.12;102523.50;2096255;28;47741;-60
2022/07/08 02:46:34;;;;;;;;;2.00;2.00;;;;;20.68;46.33;102524.44;2102974;28;47654;-60
2022/07/08 02:47:34;;;;;;;;;3.00;3.00;;;;;20.68;46.00;102527.13;2104778;27;47711;-59
2022/07/08 02:48:35;;;;;;;;;3.33;3.33;;;;;20.66;46.23;102528.13;2102401;28;47653;-61
2022/07/08 02:49:35;;;;;;;;;3.00;3.00;;;;;20.64;45.86;102524.59;2109928;27;47388;-60
2022/07/08 02:50:36;;;;;;;;;2.00;2.00;;;;;20.63;45.67;102525.53;2108063;27;47487;-60
2022/07/08 02:51:37;;;;;;;;;2.00;2.00;;;;;20.63;45.82;102526.41;2109951;27;47185;-60
2022/07/08 02:52:38;;;;;;;;;3.00;2.00;;;;;20.59;46.31;102532.88;2104601;27;47503;-59
2022/07/08 02:53:38;;;;;;;;;0.67;0.67;;;;;20.58;45.84;102528.38;2109219;27;46808;-60
2022/07/08 02:54:39;;;;;;;;;2.67;2.67;;;;;20.56;46.27;102522.16;2103226;27;46484;-60
2022/07/08 02:55:39;;;;;;;;;5.00;2.00;;;;;20.54;46.40;102522.22;2103444;27;47770;-61
2022/07/08 02:56:40;;;;;;;;;2.67;2.67;;;;;20.56;46.02;102535.66;2102681;28;46802;-59
2022/07/08 02:57:40;;;;;;;;;2.00;2.00;;;;;20.53;45.97;102524.97;2109921;27;47800;-57
2022/07/08 02:58:40;;;;;;;;;2.33;1.67;;;;;20.53;46.06;102528.56;2107092;27;47262;-58
2022/07/08 02:59:41;;;;;;;;;3.00;3.00;;;;;20.52;46.54;102529.50;2108549;27;46868;-59
2022/07/08 03:00:41;;;;;;;;;4.67;2.33;;;;;20.52;46.34;102534.00;2104650;27;47413;-60
2022/07/08 03:01:42;;;;;;;;;2.00;2.00;;;;;20.52;46.38;102531.31;2081067;28;47298;-59
2022/07/08 03:02:42;;;;;;;;;2.00;2.00;;;;;20.49;46.44;102532.31;2079773;28;47462;-55
2022/07/08 03:03:42;;;;;;;;;2.67;2.00;;;;;20.47;46.60;102536.00;2107537;27;46491;-60
2022/07/08 03:04:43;;;;;;;;;2.00;2.00;;;;;20.45;46.76;102541.41;2101088;28;47322;-59
2022/07/08 03:05:43;;;;;;;;;4.00;4.00;;;;;20.44;46.91;102544.16;2104331;27;47360;-60
2022/07/08 03:06:44;;;;;;;;;3.00;3.00;;;;;20.45;46.61;102543.22;2101739;28;47333;-60
2022/07/08 03:07:44;;;;;;;;;1.33;1.33;;;;;20.44;46.54;102545.03;2103542;28;47628;-60
2022/07/08 03:08:45;;;;;;;;;1.00;1.00;;;;;20.43;46.40;102539.69;2098761;28;47960;-59
2022/07/08 03:09:45;;;;;;;;;2.00;1.33;;;;;20.44;46.87;102542.34;2109168;27;46768;-58
2022/07/08 03:10:46;;;;;;;;;1.00;1.00;;;;;20.43;46.16;102545.97;2103815;27;48010;-61
2022/07/08 03:11:46;;;;;;;;;7.67;4.00;;;;;20.42;46.29;102544.22;2103353;28;47659;-59
2022/07/08 03:12:47;;;;;;;;;1.33;1.33;;;;;20.41;46.63;102547.81;2100930;28;47857;-58
2022/07/08 03:13:47;;;;;;;;;3.00;2.00;;;;;20.40;46.35;102546.06;2105964;27;45654;-58
2022/07/08 03:14:47;;;;;;;;;2.33;2.33;;;;;20.40;46.37;102550.56;2101028;28;45584;-58
2022/07/08 03:15:48;;;;;;;;;1.33;1.33;;;;;20.40;46.56;102553.25;2111097;27;47835;-59
2022/07/08 03:16:48;;;;;;;;;3.67;3.33;;;;;20.39;46.90;102552.38;2106723;27;46704;-61
2022/07/08 03:17:49;;;;;;;;;3.00;3.00;;;;;20.38;46.67;102547.91;2110187;27;47571;-59
2022/07/08 03:18:49;;;;;;;;;2.00;2.00;;;;;20.37;46.59;102543.47;2101131;27;47818;-59
2022/07/08 03:19:49;;;;;;;;;3.33;3.33;;;;;20.38;46.87;102555.13;2110613;27;45981;-60
2022/07/08 03:20:50;;;;;;;;;3.00;3.00;;;;;20.37;46.85;102546.16;2089989;28;46141;-60
2022/07/08 03:21:50;;;;;;;;;1.67;1.00;;;;;20.37;46.45;102545.28;2089132;28;47884;-60
2022/07/08 03:22:51;;;;;;;;;3.33;3.33;;;;;20.36;46.38;102544.41;2094014;28;47542;-59
2022/07/08 03:23:51;;;;;;;;;2.00;2.00;;;;;20.35;46.42;102556.13;2106116;27;47186;-60
2022/07/08 03:24:51;;;;;;;;;1.33;1.33;;;;;20.33;46.99;102552.59;2104495;27;47466;-59
2022/07/08 03:25:52;;;;;;;;;2.00;1.33;;;;;20.32;46.76;102553.50;2106163;27;45908;-59
2022/07/08 03:26:52;;;;;;;;;3.00;2.67;;;;;20.34;46.93;102556.19;2103701;27;47908;-57
2022/07/08 03:27:53;;;;;;;;;3.00;3.00;;;;;20.32;47.06;102550.81;2104439;28;46933;-59
2022/07/08 03:28:53;;;;;;;;;8.00;8.00;;;;;20.32;46.65;102550.81;2104193;27;47573;-58
2022/07/08 03:29:54;;;;;;;;;6.25;4.50;;;;;20.32;46.55;102560.72;2105773;27;46013;-61
2022/07/08 03:30:55;;;;;;;;;4.67;4.67;;;;;20.32;46.80;102556.19;2103079;27;45825;-61
2022/07/08 03:31:55;;;;;;;;;1.67;1.67;;;;;20.32;46.88;102556.19;2104976;28;47883;-60
2022/07/08 03:32:55;;;;;;;;;3.00;3.00;;;;;20.32;47.10;102558.91;2102920;27;46830;-61
2022/07/08 03:33:56;;;;;;;;;3.33;3.33;;;;;20.34;47.31;102564.28;2105082;28;47551;-60
2022/07/08 03:34:56;;;;;;;;;4.33;4.00;;;;;20.35;47.02;102568.72;2103149;27;47606;-60
2022/07/08 03:35:57;;;;;;;;;2.00;1.00;;;;;20.35;47.34;102566.91;2104618;28;47929;-59
2022/07/08 03:36:57;;;;;;;;;5.33;3.67;;;;;20.34;47.16;102566.97;2102586;27;47709;-59
2022/07/08 03:37:57;;;;;;;;;2.00;1.00;;;;;20.34;46.72;102565.16;2104906;28;46810;-60
2022/07/08 03:38:58;;;;;;;;;3.67;3.67;;;;;20.33;46.96;102571.47;2103821;27;46445;-59
2022/07/08 03:41:19;;;;;;;;;5.00;2.00;;;;;20.34;47.01;102567.84;2105260;28;47982;-59
2022/07/08 03:41:23;;;;;;;;;4.00;4.00;;;;;20.35;46.52;102568.72;2102837;27;47673;-58
2022/07/08 03:42:23;;;;;;;;;2.00;2.00;;;;;20.34;46.57;102562.44;2104158;27;47939;-60
2022/07/08 03:43:23;;;;;;;;;1.67;1.67;;;;;20.35;47.01;102563.34;2104776;27;46677;-60
2022/07/08 03:44:24;;;;;;;;;2.67;2.67;;;;;20.33;47.00;102562.47;2103700;28;47969;-60
2022/07/08 03:45:24;;;;;;;;;5.00;4.00;;;;;20.32;46.93;102567.00;2103357;27;47513;-61
2022/07/08 03:46:25;;;;;;;;;1.33;1.33;;;;;20.32;46.81;102563.41;2103822;28;45468;-60
2022/07/08 03:47:25;;;;;;;;;3.67;3.67;;;;;20.32;46.58;102569.69;2104377;27;47401;-60
2022/07/08 03:48:26;;;;;;;;;1.00;1.00;;;;;20.31;46.95;102573.31;2102202;28;47660;-60
2022/07/08 03:49:26;;;;;;;;;3.00;3.00;;;;;20.32;47.02;102576.88;2102989;28;46415;-60
2022/07/08 03:50:27;;;;;;;;;3.33;2.00;;;;;20.30;46.62;102574.25;2103259;27;47673;-59
2022/07/08 03:51:27;;;;;;;;;4.00;4.00;;;;;20.28;47.16;102571.59;2104295;27;47526;-61
2022/07/08 03:52:28;;;;;;;;;2.33;2.33;;;;;20.28;46.59;102568.03;2103244;27;47690;-61
2022/07/08 03:53:28;;;;;;;;;2.33;2.33;;;;;20.29;46.70;102569.78;2104916;27;47354;-59
2022/07/08 03:54:29;;;;;;;;;4.00;3.00;;;;;20.27;46.68;102568.97;2080763;28;46790;-58
2022/07/08 03:55:29;;;;;;;;;2.67;2.67;;;;;20.27;46.90;102574.34;2084476;28;48130;-58
2022/07/08 03:56:29;;;;;;;;;2.00;2.00;;;;;20.27;46.73;102574.34;2102671;27;47462;-58
2022/07/08 03:57:30;;;;;;;;;3.67;3.67;;;;;20.27;47.28;102568.97;2106704;27;47920;-59
2022/07/08 03:58:30;;;;;;;;;5.00;5.00;;;;;20.24;46.82;102572.66;2103495;27;47459;-59
2022/07/08 03:59:31;;;;;;;;;4.00;3.33;;;;;20.25;46.89;102570.84;2108035;27;47748;-59
2022/07/08 04:00:31;;;;;;;;;2.00;2.00;;;;;20.23;47.13;102570.00;2097971;27;46827;-58
2022/07/08 04:01:32;;;;;;;;;1.33;1.00;;;;;20.22;46.75;102581.72;2104300;28;47341;-59
2022/07/08 04:02:33;;;;;;;;;3.33;3.00;;;;;20.22;47.03;102587.13;2102869;27;47914;-60
2022/07/08 04:03:33;;;;;;;;;4.00;4.00;;;;;20.22;47.20;102581.72;2100329;28;47450;-60
2022/07/08 04:04:34;;;;;;;;;4.00;4.00;;;;;20.20;47.30;102581.78;2096076;27;46667;-60
2022/07/08 04:05:34;;;;;;;;;3.67;3.67;;;;;20.20;47.05;102581.78;2107227;27;47785;-60
2022/07/08 04:06:34;;;;;;;;;4.00;1.67;;;;;20.19;46.96;102590.78;2102002;28;47750;-60
2022/07/08 04:07:35;;;;;;;;;2.67;2.00;;;;;20.20;46.75;102587.16;2104695;27;47405;-60
2022/07/08 04:08:35;;;;;;;;;3.33;3.33;;;;;20.21;46.73;102590.75;2103009;27;47625;-60
2022/07/08 04:09:35;;;;;;;;;3.00;1.67;;;;;20.20;47.23;102588.94;2104119;28;47887;-61
2022/07/08 04:10:36;;;;;;;;;4.00;4.00;;;;;20.20;47.36;102587.16;2099777;27;47654;-60
2022/07/08 04:11:37;;;;;;;;;5.00;5.00;;;;;20.19;46.87;102579.09;2107607;27;47905;-60
2022/07/08 04:12:38;;;;;;;;;4.00;3.50;;;;;20.19;46.82;102590.78;2102096;27;47896;-59
2022/07/08 04:13:39;;;;;;;;;3.00;3.00;;;;;20.19;47.32;102584.50;2106974;27;47938;-59
2022/07/08 04:14:39;;;;;;;;;1.25;1.25;;;;;20.17;46.98;102587.25;2102509;27;47789;-58
2022/07/08 04:15:40;;;;;;;;;4.00;3.00;;;;;20.17;47.13;102575.59;2104717;28;47579;-59
2022/07/08 04:16:40;;;;;;;;;3.00;3.00;;;;;20.15;46.97;102580.16;2102414;27;47328;-60
2022/07/08 04:17:40;;;;;;;;;3.67;3.67;;;;;20.16;46.82;102580.09;2107290;27;48056;-59
2022/07/08 04:18:41;;;;;;;;;3.75;3.00;;;;;20.16;47.29;102576.50;2101472;27;47796;-59
2022/07/08 04:19:42;;;;;;;;;3.67;3.67;;;;;20.13;47.24;102577.50;2098263;28;48143;-60
2022/07/08 04:20:42;;;;;;;;;3.00;3.00;;;;;20.12;47.01;102575.75;2101601;28;47945;-59
2022/07/08 04:21:43;;;;;;;;;2.00;2.00;;;;;20.12;46.88;102577.56;2107674;27;48105;-59
2022/07/08 04:22:43;;;;;;;;;4.00;2.00;;;;;20.09;47.23;102581.25;2104917;27;46561;-59
2022/07/08 04:23:43;;;;;;;;;4.00;3.00;;;;;20.09;47.40;102583.06;2103673;28;47557;-59
2022/07/08 04:24:44;;;;;;;;;7.50;4.50;;;;;20.09;47.44;102583.94;2103697;27;47525;-59
2022/07/08 04:25:44;;;;;;;;;2.33;2.33;;;;;20.07;47.17;102585.75;2104580;28;47314;-59
2022/07/08 04:26:45;;;;;;;;;3.33;3.33;;;;;20.06;47.16;102581.31;2103756;28;45734;-60
2022/07/08 04:27:45;;;;;;;;;4.00;3.33;;;;;20.08;47.46;102583.97;2105157;27;46315;-60
2022/07/08 04:28:45;;;;;;;;;2.33;1.67;;;;;20.06;47.25;102584.00;2102986;27;47589;-58
2022/07/08 04:29:46;;;;;;;;;3.67;2.67;;;;;20.05;47.56;102584.06;2104129;28;47793;-60
2022/07/08 04:30:46;;;;;;;;;3.33;2.33;;;;;20.05;47.52;102586.75;2104899;27;46616;-60
2022/07/08 04:31:47;;;;;;;;;4.67;3.33;;;;;20.03;47.37;102594.00;2106094;27;47841;-60
2022/07/08 04:32:47;;;;;;;;;4.33;3.00;;;;;20.03;47.64;102589.50;2102926;27;47826;-58
2022/07/08 04:33:47;;;;;;;;;3.00;3.00;;;;;20.03;47.67;102589.50;2105834;27;47639;-60
2022/07/08 04:34:48;;;;;;;;;2.67;2.67;;;;;20.04;47.28;102585.00;2088718;28;47440;-60
2022/07/08 04:35:49;;;;;;;;;3.60;3.60;;;;;20.04;47.87;102590.38;2088146;28;47751;-60
2022/07/08 04:36:49;;;;;;;;;5.75;4.50;;;;;20.03;47.58;102589.50;2104602;27;47575;-60
2022/07/08 04:37:50;;;;;;;;;1.67;1.67;;;;;20.04;47.63;102588.56;2105781;27;48004;-59
2022/07/08 04:38:50;;;;;;;;;4.00;3.00;;;;;20.05;47.72;102592.16;2103644;27;48086;-58
2022/07/08 04:39:51;;;;;;;;;3.33;2.00;;;;;20.05;47.81;102595.72;2099429;28;45592;-59
2022/07/08 04:40:51;;;;;;;;;4.25;3.50;;;;;20.06;47.62;102589.41;2093678;28;47541;-59
2022/07/08 04:41:52;;;;;;;;;3.00;3.00;;;;;20.07;47.73;102592.97;2094961;28;48000;-60
2022/07/08 04:42:52;;;;;;;;;2.33;2.33;;;;;20.05;47.24;102584.94;2103626;28;46355;-59
2022/07/08 04:43:53;;;;;;;;;5.67;4.33;;;;;20.05;47.30;102592.16;2077212;28;47459;-59
2022/07/08 04:44:53;;;;;;;;;7.25;5.75;;;;;20.03;47.64;102597.59;2077063;28;47588;-59